createdAt,value
2022-10-07T00:00:32.899Z,2.30
2022-10-07T00:03:05.907Z,2.00
2022-10-07T00:05:36.312Z,2.28
2022-10-07T00:08:06.731Z,2.20
2022-10-07T00:10:40.735Z,2.55
2022-10-07T00:13:12.650Z,2.45
2022-10-07T00:15:43.082Z,2.20
2022-10-07T00:18:16.206Z,2.15
2022-10-07T00:20:46.575Z,2.40
2022-10-07T00:23:16.992Z,2.25
2022-10-07T00:25:47.326Z,2.03
2022-10-07T00:28:17.894Z,2.20
2022-10-07T00:30:48.442Z,2.20
2022-10-07T00:33:21.579Z,2.30
2022-10-07T00:35:51.965Z,2.08
2022-10-07T00:38:22.385Z,2.22
2022-10-07T00:40:52.917Z,2.13
2022-10-07T00:43:25.825Z,2.03
2022-10-07T00:46:00.200Z,2.40
2022-10-07T00:48:35.787Z,2.25
2022-10-07T00:53:41.762Z,2.22
2022-10-07T00:56:13.267Z,2.20
2022-10-07T00:58:46.178Z,2.67
2022-10-07T01:01:16.839Z,2.10
2022-10-07T01:03:50.528Z,2.20
2022-10-07T01:06:21.751Z,2.10
2022-10-07T01:08:53.995Z,2.35
2022-10-07T01:11:36.889Z,2.20
2022-10-07T01:14:15.710Z,2.20
2022-10-07T01:16:55.515Z,2.30
2022-10-07T01:19:46.102Z,2.28
2022-10-07T01:22:28.755Z,1.98
2022-10-07T01:25:12.800Z,1.70
2022-10-07T01:27:51.695Z,2.28
2022-10-07T01:30:22.423Z,3.30
2022-10-07T01:32:59.426Z,2.60
2022-10-07T01:35:35.857Z,2.33
2022-10-07T01:38:10.173Z,2.42
2022-10-07T01:40:46.325Z,2.72
2022-10-07T01:43:21.966Z,3.05
2022-10-07T01:45:55.599Z,3.08
2022-10-07T01:48:26.211Z,2.92
2022-10-07T01:50:57.680Z,2.75
2022-10-07T01:53:41.250Z,2.72
2022-10-07T01:56:31.513Z,3.30
2022-10-07T01:59:27.048Z,3.13
2022-10-07T02:02:07.036Z,2.20
2022-10-07T02:04:47.129Z,2.05
2022-10-07T02:07:32.045Z,2.00
2022-10-07T02:10:15.433Z,2.03
2022-10-07T02:12:55.790Z,2.40
2022-10-07T02:15:35.166Z,2.30
2022-10-07T02:18:10.152Z,2.30
2022-10-07T02:20:43.059Z,1.83
2022-10-07T02:23:17.490Z,2.40
2022-10-07T02:25:51.544Z,2.70
2022-10-07T02:28:26.302Z,2.70
2022-10-07T02:31:04.383Z,3.00
2022-10-07T02:33:37.076Z,2.90
2022-10-07T02:36:12.985Z,2.72
2022-10-07T02:38:44.018Z,2.85
2022-10-07T02:41:31.644Z,2.17
2022-10-07T02:44:18.565Z,1.98
2022-10-07T02:46:56.934Z,2.40
2022-10-07T02:49:31.968Z,2.00
2022-10-07T02:52:05.616Z,2.70
2022-10-07T02:54:41.675Z,2.33
2022-10-07T02:57:15.007Z,2.63
2022-10-07T02:59:47.292Z,2.50
2022-10-07T03:02:28.774Z,2.53
2022-10-07T03:05:00.478Z,2.15
2022-10-07T03:07:33.106Z,2.35
2022-10-07T03:10:04.177Z,2.55
2022-10-07T03:12:34.830Z,3.05
2022-10-07T03:15:06.034Z,2.42
2022-10-07T03:17:39.444Z,2.63
2022-10-07T03:20:15.403Z,2.30
2022-10-07T03:22:47.712Z,2.80
2022-10-07T03:25:20.957Z,2.72
2022-10-07T03:27:53.321Z,3.25
2022-10-07T03:30:25.210Z,2.47
2022-10-07T03:32:59.507Z,3.08
2022-10-07T03:35:30.080Z,3.50
2022-10-07T03:38:01.030Z,3.20
2022-10-07T03:40:31.466Z,2.80
2022-10-07T03:43:02.183Z,2.45
2022-10-07T03:45:33.402Z,3.95
2022-10-07T03:48:07.128Z,2.90
2022-10-07T03:50:38.338Z,3.25
2022-10-07T03:53:08.853Z,3.00
2022-10-07T03:55:39.867Z,3.00
2022-10-07T03:58:10.268Z,4.80
2022-10-07T04:00:41.463Z,2.88
2022-10-07T04:03:18.936Z,2.50
2022-10-07T04:06:00.849Z,2.67
2022-10-07T04:08:34.907Z,2.70
2022-10-07T04:11:07.503Z,3.10
2022-10-07T04:13:40.786Z,3.10
2022-10-07T04:16:13.359Z,3.10
2022-10-07T04:18:46.780Z,3.03
2022-10-07T04:21:17.619Z,3.25
2022-10-07T04:23:48.121Z,3.88
2022-10-07T04:26:18.666Z,3.35
2022-10-07T04:28:51.929Z,3.55
2022-10-07T04:31:25.328Z,3.20
2022-10-07T04:34:04.132Z,3.55
2022-10-07T04:36:38.888Z,4.63
2022-10-07T04:39:43.071Z,3.30
2022-10-07T04:42:30.649Z,3.38
2022-10-07T04:45:01.739Z,3.88
2022-10-07T04:47:35.696Z,3.60
2022-10-07T04:50:11.394Z,3.72
2022-10-07T04:52:43.139Z,4.10
2022-10-07T04:55:15.027Z,4.90
2022-10-07T04:57:48.618Z,5.10
2022-10-07T05:00:19.985Z,5.60
2022-10-07T05:02:51.733Z,4.13
2022-10-07T05:05:28.804Z,4.20
2022-10-07T05:07:59.234Z,4.07
2022-10-07T05:10:31.610Z,3.60
2022-10-07T05:13:02.405Z,4.45
2022-10-07T05:15:32.913Z,4.97
2022-10-07T05:18:04.141Z,4.55
2022-10-07T05:20:42.068Z,4.78
2022-10-07T05:23:13.443Z,4.10
2022-10-07T05:25:44.597Z,3.75
2022-10-07T05:28:16.492Z,3.38
2022-10-07T05:30:47.101Z,3.63
2022-10-07T05:33:17.589Z,5.50
2022-10-07T05:35:51.976Z,6.03
2022-10-07T05:38:22.452Z,6.63
2022-10-07T05:40:59.644Z,6.20
2022-10-07T05:43:33.810Z,5.13
2022-10-07T05:46:08.386Z,5.07
2022-10-07T05:48:43.311Z,4.75
2022-10-07T05:51:17.393Z,5.75
2022-10-07T05:53:48.153Z,5.43
2022-10-07T05:56:20.327Z,4.50
2022-10-07T05:58:52.708Z,3.80
2022-10-07T06:01:27.317Z,4.38
2022-10-07T06:03:59.999Z,4.10
2022-10-07T06:06:38.818Z,2.85
2022-10-07T06:09:26.488Z,2.42
2022-10-07T06:12:09.669Z,3.30
2022-10-07T06:14:42.229Z,3.17
2022-10-07T06:17:13.502Z,4.10
2022-10-07T06:19:45.819Z,3.10
2022-10-07T06:22:20.394Z,3.13
2022-10-07T06:24:52.264Z,3.22
2022-10-07T06:27:24.422Z,2.83
2022-10-07T06:29:54.846Z,3.60
2022-10-07T06:32:25.386Z,3.20
2022-10-07T06:34:57.146Z,4.85
2022-10-07T06:37:33.825Z,3.75
2022-10-07T06:40:04.949Z,3.40
2022-10-07T06:42:36.915Z,3.88
2022-10-07T06:45:19.685Z,2.60
2022-10-07T06:47:52.353Z,2.20
2022-10-07T06:50:23.288Z,2.88
2022-10-07T06:52:56.538Z,2.70
2022-10-07T06:55:27.686Z,3.05
2022-10-07T06:57:58.636Z,2.05
2022-10-07T07:00:30.237Z,2.05
2022-10-07T07:03:03.003Z,2.20
2022-10-07T07:05:41.330Z,2.75
2022-10-07T07:08:19.219Z,1.35
2022-10-07T07:10:50.180Z,1.42
2022-10-07T07:13:21.523Z,1.65
2022-10-07T07:15:58.731Z,1.58
2022-10-07T07:18:31.373Z,1.40
2022-10-07T07:21:07.949Z,1.63
2022-10-07T07:23:42.052Z,1.35
2022-10-07T07:26:12.530Z,1.30
2022-10-07T07:28:43.418Z,1.42
2022-10-07T07:31:15.777Z,1.75
2022-10-07T07:33:52.475Z,2.00
2022-10-07T07:36:26.230Z,1.10
2022-10-07T07:39:07.400Z,1.40
2022-10-07T07:41:41.815Z,1.50
2022-10-07T07:44:15.976Z,1.40
2022-10-07T07:46:49.383Z,1.27
2022-10-07T07:49:20.013Z,1.60
2022-10-07T07:51:51.017Z,1.35
2022-10-07T07:54:31.671Z,1.90
2022-10-07T07:57:02.127Z,1.10
2022-10-07T07:59:34.752Z,2.10
2022-10-07T08:02:05.347Z,1.40
2022-10-07T08:04:36.686Z,1.10
2022-10-07T08:07:07.934Z,2.10
2022-10-07T08:09:40.997Z,1.20
2022-10-07T08:12:12.142Z,1.10
2022-10-07T08:14:43.450Z,1.40
2022-10-07T08:17:15.843Z,2.22
2022-10-07T08:19:46.642Z,1.30
2022-10-07T08:22:17.950Z,1.52
2022-10-07T08:24:54.376Z,1.60
2022-10-07T08:27:27.060Z,1.00
2022-10-07T08:29:57.524Z,1.50
2022-10-07T08:32:28.151Z,1.52
2022-10-07T08:34:58.542Z,1.38
2022-10-07T08:37:29.152Z,2.40
2022-10-07T08:40:02.685Z,1.85
2022-10-07T08:42:40.453Z,1.63
2022-10-07T08:45:22.622Z,1.60
2022-10-07T08:47:54.842Z,1.55
2022-10-07T08:50:32.649Z,2.40
2022-10-07T08:53:06.260Z,2.22
2022-10-07T08:55:44.087Z,2.03
2022-10-07T08:58:43.510Z,1.70
2022-10-07T09:01:28.351Z,2.30
2022-10-07T09:04:10.793Z,1.92
2022-10-07T09:06:45.233Z,1.80
2022-10-07T09:09:20.988Z,1.85
2022-10-07T09:11:55.742Z,2.92
2022-10-07T09:14:31.270Z,1.85
2022-10-07T09:17:07.015Z,2.17
2022-10-07T09:19:42.846Z,2.42
2022-10-07T09:22:21.957Z,2.35
2022-10-07T09:24:56.190Z,1.83
2022-10-07T09:27:29.939Z,2.00
2022-10-07T09:30:00.419Z,2.00
2022-10-07T09:32:31.180Z,2.20
2022-10-07T09:35:03.497Z,1.85
2022-10-07T09:37:34.354Z,2.00
2022-10-07T09:40:24.169Z,2.78
2022-10-07T09:42:58.129Z,1.75
2022-10-07T09:45:31.417Z,1.90
2022-10-07T09:48:07.797Z,2.40
2022-10-07T09:50:41.279Z,3.30
2022-10-07T09:53:22.106Z,2.58
2022-10-07T09:55:54.483Z,2.67
2022-10-07T09:58:29.416Z,1.90
2022-10-07T10:03:33.885Z,2.13
2022-10-07T10:06:06.544Z,2.05
2022-10-07T10:08:40.550Z,2.00
2022-10-07T10:11:28.416Z,1.88
2022-10-07T10:14:01.553Z,2.13
2022-10-07T10:16:37.677Z,2.00
2022-10-07T10:19:24.438Z,1.98
2022-10-07T10:21:57.136Z,2.38
2022-10-07T10:24:40.578Z,2.38
2022-10-07T10:27:19.219Z,2.30
2022-10-07T10:29:59.838Z,2.05
2022-10-07T10:32:52.746Z,2.38
2022-10-07T10:35:28.116Z,2.33
2022-10-07T10:38:29.797Z,2.67
2022-10-07T10:41:09.687Z,3.15
2022-10-07T10:43:54.341Z,2.25
2022-10-07T10:46:41.886Z,2.58
2022-10-07T10:49:26.242Z,2.05
2022-10-07T10:52:14.252Z,2.30
2022-10-07T10:54:59.454Z,2.72
2022-10-07T10:57:40.592Z,2.28
2022-10-07T11:00:15.716Z,2.38
2022-10-07T11:03:09.475Z,2.97
2022-10-07T11:05:42.735Z,1.98
2022-10-07T11:08:17.737Z,2.30
2022-10-07T11:10:53.439Z,2.15
2022-10-07T11:13:37.104Z,2.53
2022-10-07T11:16:11.760Z,2.40
2022-10-07T11:18:50.020Z,2.42
2022-10-07T11:21:27.189Z,1.90
2022-10-07T11:24:04.379Z,3.13
2022-10-07T11:26:41.146Z,2.30
2022-10-07T11:29:25.299Z,2.25
2022-10-07T11:32:05.084Z,2.00
2022-10-07T11:34:49.899Z,3.03
2022-10-07T11:37:32.148Z,1.92
2022-10-07T11:40:02.717Z,1.95
2022-10-07T11:42:40.557Z,2.30
2022-10-07T11:45:16.843Z,1.92
2022-10-07T11:47:51.980Z,2.20
2022-10-07T11:50:29.596Z,2.22
2022-10-07T11:53:06.487Z,2.70
2022-10-07T11:55:42.518Z,2.28
2022-10-07T11:58:26.808Z,2.03
2022-10-07T12:01:28.749Z,2.20
2022-10-07T12:04:25.122Z,1.70
2022-10-07T12:07:28.525Z,2.10
2022-10-07T12:10:22.137Z,3.53
2022-10-07T12:12:55.283Z,2.38
2022-10-07T12:15:42.552Z,1.70
2022-10-07T12:18:31.522Z,2.10
2022-10-07T12:21:11.749Z,2.33
2022-10-07T12:23:45.798Z,3.40
2022-10-07T12:26:53.722Z,2.63
2022-10-07T12:29:30.998Z,2.03
2022-10-07T12:32:01.819Z,2.20
2022-10-07T12:34:39.842Z,2.50
2022-10-07T12:37:55.767Z,2.00
2022-10-07T12:40:32.963Z,1.90
2022-10-07T12:43:28.406Z,2.10
2022-10-07T12:45:59.572Z,1.92
2022-10-07T12:48:35.363Z,1.80
2022-10-07T12:51:08.277Z,1.67
2022-10-07T12:53:45.040Z,1.90
2022-10-07T12:56:22.523Z,3.05
2022-10-07T12:59:24.952Z,2.00
2022-10-07T13:02:16.294Z,2.67
2022-10-07T13:05:10.233Z,2.13
2022-10-07T13:08:15.651Z,2.10
2022-10-07T13:11:17.150Z,2.07
2022-10-07T13:13:53.151Z,2.42
2022-10-07T13:16:34.279Z,2.70
2022-10-07T13:19:14.402Z,2.50
2022-10-07T13:21:49.903Z,2.20
2022-10-07T13:24:27.058Z,2.53
2022-10-07T13:26:58.508Z,2.40
2022-10-07T13:29:33.174Z,2.45
2022-10-07T13:32:16.326Z,3.15
2022-10-07T13:34:48.419Z,2.72
2022-10-07T13:37:37.831Z,2.60
2022-10-07T13:40:24.182Z,3.58
2022-10-07T13:42:59.364Z,2.40
2022-10-07T13:45:32.438Z,3.90
2022-10-07T13:48:05.658Z,3.35
2022-10-07T13:50:38.267Z,2.75
2022-10-07T13:53:08.676Z,3.13
2022-10-07T13:55:39.427Z,2.95
2022-10-07T13:58:09.991Z,4.07
2022-10-07T14:00:47.483Z,3.08
2022-10-07T14:03:21.658Z,3.00
2022-10-07T14:05:53.914Z,3.20
2022-10-07T14:08:28.161Z,3.00
2022-10-07T14:11:03.697Z,5.10
2022-10-07T14:13:38.071Z,3.05
2022-10-07T14:16:09.112Z,3.58
2022-10-07T14:18:46.912Z,3.50
2022-10-07T14:21:19.046Z,3.08
2022-10-07T14:23:50.052Z,2.80
2022-10-07T14:26:20.745Z,8.48
2022-10-07T14:28:51.432Z,3.75
2022-10-07T14:31:36.193Z,3.15
2022-10-07T14:34:31.407Z,3.33
2022-10-07T14:37:08.358Z,3.60
2022-10-07T14:39:41.030Z,4.32
2022-10-07T14:42:16.424Z,3.60
2022-10-07T14:44:47.651Z,3.92
2022-10-07T14:47:21.264Z,5.60
2022-10-07T14:49:55.667Z,3.80
2022-10-07T14:52:28.955Z,4.57
2022-10-07T14:55:01.711Z,4.57
2022-10-07T14:57:34.330Z,3.92
2022-10-07T15:00:04.952Z,4.05
2022-10-07T15:02:35.427Z,4.28
2022-10-07T15:05:09.575Z,4.00
2022-10-07T15:07:40.004Z,3.40
2022-10-07T15:10:19.553Z,3.58
2022-10-07T15:12:50.479Z,3.80
2022-10-07T15:15:21.505Z,4.30
2022-10-07T15:17:52.169Z,3.95
2022-10-07T15:20:25.327Z,4.40
2022-10-07T15:22:57.077Z,4.40
2022-10-07T15:25:27.668Z,3.97
2022-10-07T15:27:58.254Z,3.58
2022-10-07T15:30:29.392Z,3.58
2022-10-07T15:33:00.830Z,3.38
2022-10-07T15:35:36.511Z,3.80
2022-10-07T15:38:07.012Z,3.85
2022-10-07T15:40:37.618Z,3.95
2022-10-07T15:43:08.058Z,4.85
2022-10-07T15:45:38.690Z,3.53
2022-10-07T15:48:09.113Z,3.80
2022-10-07T15:50:42.270Z,3.53
2022-10-07T15:53:14.794Z,3.67
2022-10-07T15:55:52.356Z,3.17
2022-10-07T15:58:24.441Z,4.60
2022-10-07T16:01:02.713Z,3.30
2022-10-07T16:03:39.954Z,3.50
2022-10-07T16:06:16.921Z,3.92
2022-10-07T16:08:47.642Z,3.90
2022-10-07T16:11:18.872Z,6.25
2022-10-07T16:13:51.023Z,7.75
2022-10-07T16:16:23.788Z,7.88
2022-10-07T16:18:56.962Z,7.72
2022-10-07T16:21:32.030Z,6.82
2022-10-07T16:24:06.893Z,8.07
2022-10-07T16:26:38.676Z,6.70
2022-10-07T16:29:22.766Z,6.10
2022-10-07T16:31:58.174Z,5.57
2022-10-07T16:34:30.636Z,6.53
2022-10-07T16:37:03.813Z,7.13
2022-10-07T16:39:34.801Z,6.97
2022-10-07T16:42:05.289Z,8.48
2022-10-07T16:44:36.087Z,7.68
2022-10-07T16:47:06.549Z,7.75
2022-10-07T16:49:37.082Z,9.20
2022-10-07T16:52:11.076Z,10.75
2022-10-07T16:54:42.020Z,10.80
2022-10-07T16:57:12.516Z,10.13
2022-10-07T16:59:43.399Z,11.50
2022-10-07T17:02:13.819Z,12.10
2022-10-07T17:04:44.415Z,10.30
2022-10-07T17:07:17.615Z,9.43
2022-10-07T17:09:48.172Z,8.65
2022-10-07T17:12:18.714Z,9.55
2022-10-07T17:14:49.329Z,9.85
2022-10-07T17:17:19.794Z,10.13
2022-10-07T17:19:53.472Z,9.45
2022-10-07T17:22:26.700Z,9.73
2022-10-07T17:24:57.394Z,9.82
2022-10-07T17:27:27.925Z,9.65
2022-10-07T17:29:58.437Z,10.52
2022-10-07T17:32:29.640Z,9.43
2022-10-07T17:35:00.108Z,10.20
2022-10-07T17:37:34.052Z,10.50
2022-10-07T17:40:04.574Z,11.73
2022-10-07T17:42:35.156Z,11.27
2022-10-07T17:45:05.773Z,10.52
2022-10-07T17:47:36.617Z,10.82
2022-10-07T17:50:07.673Z,12.15
2022-10-07T17:52:40.721Z,12.23
2022-10-07T17:55:13.613Z,11.02
2022-10-07T17:57:44.374Z,10.18
2022-10-07T18:00:15.931Z,11.07
2022-10-07T18:02:46.677Z,11.30
2022-10-07T18:05:19.847Z,11.20
2022-10-07T18:07:52.882Z,10.48
2022-10-07T18:10:23.365Z,9.95
2022-10-07T18:13:06.101Z,9.30
2022-10-07T18:15:36.583Z,10.57
2022-10-07T18:18:07.287Z,11.20
2022-10-07T18:20:41.738Z,10.93
2022-10-07T18:23:14.814Z,11.38
2022-10-07T18:25:47.436Z,10.07
2022-10-07T18:28:17.931Z,9.68
2022-10-07T18:30:48.395Z,8.80
2022-10-07T18:33:18.861Z,7.85
2022-10-07T18:35:49.352Z,9.68
2022-10-07T18:38:22.453Z,9.85
2022-10-07T18:40:52.975Z,9.73
2022-10-07T18:43:23.393Z,9.65
2022-10-07T18:46:01.559Z,9.50
2022-10-07T18:48:33.096Z,10.52
2022-10-07T18:51:04.799Z,10.55
2022-10-07T18:53:40.155Z,11.13
2022-10-07T18:58:44.450Z,9.85
2022-10-07T19:01:17.285Z,10.35
2022-10-07T19:03:49.068Z,10.40
2022-10-07T19:06:21.534Z,10.55
2022-10-07T19:08:56.275Z,9.23
2022-10-07T19:11:27.117Z,8.73
2022-10-07T19:13:58.304Z,9.65
2022-10-07T19:16:34.675Z,10.32
2022-10-07T19:19:06.921Z,9.93
2022-10-07T19:21:38.153Z,11.05
2022-10-07T19:24:11.256Z,10.85
2022-10-07T19:26:45.360Z,10.10
2022-10-07T19:29:16.844Z,8.10
2022-10-07T19:31:50.010Z,9.63
2022-10-07T19:34:22.327Z,9.40
2022-10-07T19:36:53.956Z,8.55
2022-10-07T19:39:27.220Z,8.40
2022-10-07T19:41:57.693Z,8.30
2022-10-07T19:44:28.192Z,8.68
2022-10-07T19:46:58.655Z,8.45
2022-10-07T19:49:29.148Z,8.90
2022-10-07T19:51:59.631Z,8.20
2022-10-07T19:54:36.060Z,8.55
2022-10-07T19:57:06.593Z,8.35
2022-10-07T19:59:37.325Z,7.82
2022-10-07T20:02:08.675Z,7.55
2022-10-07T20:04:41.642Z,8.13
2022-10-07T20:07:12.136Z,8.57
2022-10-07T20:09:45.197Z,8.25
2022-10-07T20:12:16.630Z,7.82
2022-10-07T20:14:47.029Z,8.55
2022-10-07T20:17:17.996Z,9.38
2022-10-07T20:19:48.422Z,9.13
2022-10-07T20:22:19.026Z,8.93
2022-10-07T20:24:52.128Z,8.35
2022-10-07T20:27:22.575Z,8.63
2022-10-07T20:30:03.338Z,7.93
2022-10-07T20:32:35.748Z,7.85
2022-10-07T20:35:10.031Z,7.82
2022-10-07T20:37:40.519Z,7.28
2022-10-07T20:40:26.515Z,8.63
2022-10-07T20:42:58.683Z,8.38
2022-10-07T20:45:29.172Z,8.98
2022-10-07T20:48:01.545Z,6.75
2022-10-07T20:50:32.026Z,7.05
2022-10-07T20:53:02.577Z,7.75
2022-10-07T20:55:39.112Z,6.72
2022-10-07T20:58:09.654Z,6.38
2022-10-07T21:00:40.137Z,6.35
2022-10-07T21:03:10.589Z,7.28
2022-10-07T21:05:40.966Z,6.63
2022-10-07T21:08:11.428Z,6.78
2022-10-07T21:10:44.472Z,6.72
2022-10-07T21:13:15.330Z,7.78
2022-10-07T21:15:45.790Z,7.50
2022-10-07T21:18:17.376Z,7.88
2022-10-07T21:20:56.763Z,8.63
2022-10-07T21:23:29.531Z,9.05
2022-10-07T21:26:04.864Z,8.27
2022-10-07T21:31:08.675Z,6.20
2022-10-07T21:33:40.822Z,6.57
2022-10-07T21:36:16.026Z,5.80
2022-10-07T21:38:47.558Z,6.55
2022-10-07T21:41:22.724Z,6.03
2022-10-07T21:43:54.334Z,6.10
2022-10-07T21:46:26.342Z,6.57
2022-10-07T21:48:57.327Z,6.28
2022-10-07T21:51:29.851Z,6.65
2022-10-07T21:54:01.148Z,6.10
2022-10-07T21:56:35.525Z,6.40
2022-10-07T21:59:06.271Z,5.95
2022-10-07T22:01:36.941Z,6.68
2022-10-07T22:04:08.256Z,6.45
2022-10-07T22:06:51.718Z,5.53
2022-10-07T22:09:22.919Z,5.75
2022-10-07T22:11:55.904Z,6.22
2022-10-07T22:14:27.825Z,6.05
2022-10-07T22:16:58.395Z,5.15
2022-10-07T22:19:28.966Z,6.38
2022-10-07T22:21:59.366Z,6.40
2022-10-07T22:24:29.983Z,6.00
2022-10-07T22:27:04.668Z,6.43
2022-10-07T22:29:35.339Z,6.25
2022-10-07T22:32:05.748Z,5.88
2022-10-07T22:34:48.562Z,5.63
2022-10-07T22:37:18.989Z,5.88
2022-10-07T22:39:49.437Z,5.35
2022-10-07T22:42:22.758Z,5.00
2022-10-07T22:44:53.155Z,5.30
2022-10-07T22:47:23.662Z,5.72
2022-10-07T22:49:55.447Z,5.78
2022-10-07T22:52:26.148Z,5.18
2022-10-07T22:54:56.610Z,5.03
2022-10-07T22:57:29.787Z,5.50
2022-10-07T23:00:00.908Z,6.07
2022-10-07T23:02:31.567Z,5.70
2022-10-07T23:05:03.272Z,4.72
2022-10-07T23:07:34.077Z,4.97
2022-10-07T23:10:04.844Z,4.97
2022-10-07T23:12:38.142Z,4.88
2022-10-07T23:15:09.762Z,4.78
2022-10-07T23:17:40.480Z,4.60
2022-10-07T23:20:11.675Z,4.80
2022-10-07T23:22:42.845Z,4.47
2022-10-07T23:25:13.412Z,4.28
2022-10-07T23:27:46.491Z,5.10
2022-10-07T23:30:17.107Z,5.13
2022-10-07T23:32:48.981Z,5.47
2022-10-07T23:35:19.776Z,5.38
2022-10-07T23:37:50.213Z,5.90
2022-10-07T23:40:20.705Z,5.38
2022-10-07T23:42:53.696Z,5.95
2022-10-07T23:45:24.079Z,5.70
2022-10-07T23:47:54.468Z,5.63
2022-10-07T23:50:24.898Z,6.05
2022-10-07T23:52:55.447Z,6.55
2022-10-07T23:55:25.994Z,5.80
2022-10-07T23:57:59.142Z,5.93
